createdAt,value
2019-02-17T00:00:56.842Z,43.90
2019-02-17T00:03:25.608Z,48.63
2019-02-17T00:05:54.428Z,42.37
2019-02-17T00:08:23.368Z,40.17
2019-02-17T00:10:52.105Z,40.33
2019-02-17T00:13:20.869Z,36.77
2019-02-17T00:15:49.612Z,38.77
2019-02-17T00:18:18.359Z,38.43
2019-02-17T00:20:47.116Z,39.67
2019-02-17T00:23:15.883Z,41.77
2019-02-17T00:25:44.646Z,38.93
2019-02-17T00:28:13.404Z,40.10
2019-02-17T00:30:42.568Z,40.40
2019-02-17T00:33:11.318Z,38.93
2019-02-17T00:35:40.070Z,40.17
2019-02-17T00:38:08.829Z,43.37
2019-02-17T00:40:37.543Z,42.07
2019-02-17T00:43:06.448Z,42.30
2019-02-17T00:45:35.200Z,41.00
2019-02-17T00:48:04.034Z,39.48
2019-02-17T00:50:37.329Z,41.30
2019-02-17T00:53:06.152Z,42.50
2019-02-17T00:55:34.992Z,44.23
2019-02-17T00:58:03.822Z,42.90
2019-02-17T01:00:34.378Z,44.27
2019-02-17T01:03:03.212Z,43.53
2019-02-17T01:05:31.966Z,47.53
2019-02-17T01:08:00.720Z,44.57
2019-02-17T01:10:29.477Z,44.27
2019-02-17T01:12:58.233Z,42.13
2019-02-17T01:15:27.086Z,39.63
2019-02-17T01:17:55.793Z,47.37
2019-02-17T01:20:24.560Z,37.58
2019-02-17T01:22:53.290Z,41.30
2019-02-17T01:25:23.392Z,42.98
2019-02-17T01:27:53.954Z,41.60
2019-02-17T01:30:22.715Z,40.33
2019-02-17T01:32:51.580Z,37.13
2019-02-17T01:35:20.402Z,41.30
2019-02-17T01:37:49.155Z,37.67
2019-02-17T01:40:18.060Z,36.60
2019-02-17T01:42:46.877Z,44.07
2019-02-17T01:45:15.640Z,41.37
2019-02-17T01:47:45.309Z,38.10
2019-02-17T01:50:14.140Z,39.00
2019-02-17T01:52:42.870Z,38.50
2019-02-17T01:55:11.704Z,37.13
2019-02-17T01:57:40.461Z,37.80
2019-02-17T02:00:11.372Z,36.60
2019-02-17T02:02:40.104Z,37.43
2019-02-17T02:05:09.238Z,38.42
2019-02-17T02:07:38.226Z,39.90
2019-02-17T02:10:07.668Z,34.67
2019-02-17T02:12:36.567Z,37.27
2019-02-17T02:15:06.728Z,36.03
2019-02-17T02:17:35.481Z,37.40
2019-02-17T02:20:04.965Z,38.00
2019-02-17T02:22:33.703Z,39.30
2019-02-17T02:25:02.473Z,40.10
2019-02-17T02:27:31.219Z,36.13
2019-02-17T02:30:00.061Z,33.17
2019-02-17T02:32:28.786Z,43.93
2019-02-17T02:34:57.529Z,36.30
2019-02-17T02:37:26.303Z,41.30
2019-02-17T02:39:55.049Z,38.13
2019-02-17T02:42:23.794Z,38.10
2019-02-17T02:44:52.533Z,44.33
2019-02-17T02:47:21.291Z,39.23
2019-02-17T02:49:50.029Z,41.13
2019-02-17T02:52:18.788Z,38.10
2019-02-17T02:54:47.530Z,38.90
2019-02-17T02:57:16.306Z,50.98
2019-02-17T02:59:52.164Z,44.40
2019-02-17T03:02:15.517Z,45.60
2019-02-17T03:04:44.265Z,48.73
2019-02-17T03:07:16.200Z,51.67
2019-02-17T03:09:45.300Z,52.63
2019-02-17T03:12:14.057Z,60.93
2019-02-17T03:14:42.794Z,50.67
2019-02-17T03:17:11.629Z,91.50
2019-02-17T03:19:40.392Z,73.77
2019-02-17T03:22:09.153Z,84.47
2019-02-17T03:24:37.998Z,63.03
2019-02-17T03:27:06.742Z,65.32
2019-02-17T03:29:35.594Z,53.07
2019-02-17T03:32:04.341Z,58.03
2019-02-17T03:34:33.089Z,61.23
2019-02-17T03:37:01.838Z,56.97
2019-02-17T03:39:30.584Z,49.43
2019-02-17T03:41:59.505Z,54.37
2019-02-17T03:44:28.257Z,48.87
2019-02-17T03:46:57.345Z,45.45
2019-02-17T03:49:26.176Z,49.97
2019-02-17T03:51:54.903Z,61.10
2019-02-17T03:54:24.229Z,47.90
2019-02-17T03:56:53.043Z,55.37
2019-02-17T03:59:21.800Z,45.87
2019-02-17T04:01:50.606Z,53.90
2019-02-17T04:04:19.372Z,46.20
2019-02-17T04:06:48.108Z,54.38
2019-02-17T04:09:16.979Z,51.77
2019-02-17T04:11:45.998Z,50.33
2019-02-17T04:14:14.749Z,53.63
2019-02-17T04:16:43.496Z,54.53
2019-02-17T04:19:12.257Z,54.53
2019-02-17T04:21:41.007Z,52.90
2019-02-17T04:24:09.765Z,51.30
2019-02-17T04:26:38.524Z,58.40
2019-02-17T04:29:07.327Z,47.00
2019-02-17T04:31:36.041Z,52.93
2019-02-17T04:34:04.866Z,57.73
2019-02-17T04:36:33.617Z,53.47
2019-02-17T04:39:04.857Z,55.20
2019-02-17T04:41:33.610Z,51.53
2019-02-17T04:44:02.372Z,47.17
2019-02-17T04:46:31.111Z,53.47
2019-02-17T04:49:01.413Z,52.20
2019-02-17T04:51:30.237Z,49.90
2019-02-17T04:53:59.834Z,52.40
2019-02-17T04:56:28.587Z,57.90
2019-02-17T04:58:57.332Z,58.13
2019-02-17T05:01:26.164Z,67.17
2019-02-17T05:03:54.918Z,52.83
2019-02-17T05:06:23.678Z,53.70
2019-02-17T05:08:52.496Z,48.23
2019-02-17T05:11:22.315Z,59.10
2019-02-17T05:13:51.049Z,65.97
2019-02-17T05:16:19.820Z,59.73
2019-02-17T05:18:48.559Z,55.07
2019-02-17T05:21:17.321Z,54.93
2019-02-17T05:23:46.251Z,56.43
2019-02-17T05:26:15.088Z,55.97
2019-02-17T05:28:43.865Z,59.88
2019-02-17T05:31:12.623Z,55.20
2019-02-17T05:33:41.364Z,58.30
2019-02-17T05:36:10.192Z,61.77
2019-02-17T05:38:39.440Z,61.13
2019-02-17T05:41:08.229Z,57.40
2019-02-17T05:43:36.982Z,64.07
2019-02-17T05:46:05.762Z,59.13
2019-02-17T05:48:34.508Z,61.43
2019-02-17T05:51:03.278Z,61.70
2019-02-17T05:53:32.103Z,65.63
2019-02-17T05:56:00.964Z,64.93
2019-02-17T05:58:29.732Z,61.87
2019-02-17T06:01:03.721Z,59.57
2019-02-17T06:03:29.789Z,61.10
2019-02-17T06:05:58.575Z,62.17
2019-02-17T06:08:27.496Z,65.37
2019-02-17T06:10:56.509Z,55.65
2019-02-17T06:13:25.250Z,56.90
2019-02-17T06:15:54.006Z,56.80
2019-02-17T06:18:22.744Z,56.58
2019-02-17T06:20:51.509Z,58.80
2019-02-17T06:23:20.259Z,59.38
2019-02-17T06:25:49.017Z,57.67
2019-02-17T06:28:18.462Z,61.33
2019-02-17T06:30:47.224Z,58.17
2019-02-17T06:33:15.961Z,63.23
2019-02-17T06:35:44.730Z,55.67
2019-02-17T06:38:13.544Z,54.03
2019-02-17T06:40:42.793Z,54.17
2019-02-17T06:43:11.552Z,56.67
2019-02-17T06:45:40.325Z,56.63
2019-02-17T06:48:09.080Z,56.07
2019-02-17T06:50:38.272Z,52.50
2019-02-17T06:53:07.036Z,60.80
2019-02-17T06:55:46.452Z,63.37
2019-02-17T06:58:15.198Z,53.47
2019-02-17T07:00:51.982Z,50.43
2019-02-17T07:03:20.797Z,65.30
2019-02-17T07:06:04.532Z,59.00
2019-02-17T07:08:33.294Z,53.33
2019-02-17T07:11:02.020Z,49.10
2019-02-17T07:13:30.851Z,44.57
2019-02-17T07:15:59.586Z,42.57
2019-02-17T07:18:28.342Z,42.03
2019-02-17T07:20:57.142Z,40.63
2019-02-17T07:23:25.891Z,37.53
2019-02-17T07:25:54.630Z,34.60
2019-02-17T07:28:23.396Z,38.80
2019-02-17T07:30:52.135Z,39.07
2019-02-17T07:33:21.013Z,33.33
2019-02-17T07:35:49.780Z,36.20
2019-02-17T07:38:18.552Z,35.63
2019-02-17T07:40:47.332Z,38.03
2019-02-17T07:43:16.084Z,37.13
2019-02-17T07:45:47.764Z,40.70
2019-02-17T07:48:16.517Z,35.33
2019-02-17T07:50:45.425Z,44.33
2019-02-17T07:53:14.173Z,39.70
2019-02-17T07:55:45.192Z,44.43
2019-02-17T07:58:13.945Z,31.90
2019-02-17T08:00:43.242Z,38.13
2019-02-17T08:03:12.974Z,41.83
2019-02-17T08:05:41.721Z,35.98
2019-02-17T08:08:10.479Z,36.00
2019-02-17T08:10:40.832Z,35.47
2019-02-17T08:13:09.582Z,27.50
2019-02-17T08:15:38.327Z,31.73
2019-02-17T08:18:07.100Z,31.40
2019-02-17T08:20:36.546Z,27.70
2019-02-17T08:23:05.681Z,41.02
2019-02-17T08:25:34.429Z,42.03
2019-02-17T08:28:03.184Z,26.47
2019-02-17T08:30:31.935Z,25.07
2019-02-17T08:33:00.680Z,25.65
2019-02-17T08:35:29.437Z,28.50
2019-02-17T08:38:03.398Z,21.85
2019-02-17T08:40:31.769Z,22.87
2019-02-17T08:43:00.512Z,23.00
2019-02-17T08:45:29.258Z,24.00
2019-02-17T08:47:58.163Z,19.30
2019-02-17T08:50:26.912Z,21.70
2019-02-17T08:52:55.849Z,23.37
2019-02-17T08:55:24.884Z,24.50
2019-02-17T08:57:53.936Z,22.57
2019-02-17T09:00:23.052Z,24.00
2019-02-17T09:02:52.323Z,24.90
2019-02-17T09:05:21.434Z,22.50
2019-02-17T09:07:50.518Z,23.43
2019-02-17T09:10:19.618Z,21.87
2019-02-17T09:12:49.806Z,22.63
2019-02-17T09:15:18.904Z,22.97
2019-02-17T09:17:48.025Z,22.43
2019-02-17T09:20:18.433Z,21.73
2019-02-17T09:22:47.629Z,23.47
2019-02-17T09:25:16.900Z,22.17
2019-02-17T09:27:46.210Z,22.00
2019-02-17T09:30:18.253Z,23.67
2019-02-17T09:32:47.062Z,23.30
2019-02-17T09:35:15.914Z,22.70
2019-02-17T09:37:44.706Z,23.60
2019-02-17T09:40:14.158Z,24.63
2019-02-17T09:42:42.936Z,34.97
2019-02-17T09:45:13.032Z,31.12
2019-02-17T09:47:43.594Z,29.43
2019-02-17T09:50:12.940Z,32.80
2019-02-17T09:52:41.961Z,34.63
2019-02-17T09:55:10.770Z,31.15
2019-02-17T09:57:39.880Z,30.20
2019-02-17T10:00:10.558Z,30.15
2019-02-17T10:02:39.475Z,31.45
2019-02-17T10:05:08.468Z,29.43
2019-02-17T10:07:37.312Z,30.17
2019-02-17T10:10:07.680Z,28.07
2019-02-17T10:12:36.461Z,28.60
2019-02-17T10:15:05.824Z,30.03
2019-02-17T10:17:34.570Z,31.97
2019-02-17T10:20:03.545Z,28.17
2019-02-17T10:22:32.307Z,28.38
2019-02-17T10:25:01.088Z,26.93
2019-02-17T10:27:29.858Z,29.48
2019-02-17T10:29:58.680Z,26.10
2019-02-17T10:32:36.462Z,26.17
2019-02-17T10:34:58.830Z,25.40
2019-02-17T10:37:27.597Z,24.63
2019-02-17T10:39:56.330Z,25.53
2019-02-17T10:42:25.209Z,26.47
2019-02-17T10:44:53.956Z,25.12
2019-02-17T10:47:22.704Z,24.27
2019-02-17T10:49:51.481Z,25.43
2019-02-17T10:52:20.250Z,24.63
2019-02-17T10:54:49.005Z,23.67
2019-02-17T10:57:17.745Z,23.63
2019-02-17T10:59:46.986Z,24.37
2019-02-17T11:02:15.962Z,24.03
2019-02-17T11:04:44.733Z,23.83
2019-02-17T11:07:13.494Z,23.73
2019-02-17T11:09:42.264Z,25.10
2019-02-17T11:12:15.891Z,26.17
2019-02-17T11:14:44.410Z,24.50
2019-02-17T11:17:13.149Z,26.90
2019-02-17T11:19:41.921Z,23.07
2019-02-17T11:22:12.318Z,24.45
2019-02-17T11:24:41.089Z,24.17
2019-02-17T11:27:09.853Z,26.20
2019-02-17T11:29:38.620Z,23.07
2019-02-17T11:32:07.453Z,24.47
2019-02-17T11:34:36.383Z,23.63
2019-02-17T11:37:05.316Z,22.70
2019-02-17T11:39:34.086Z,24.17
2019-02-17T11:42:03.252Z,23.47
2019-02-17T11:44:32.115Z,22.40
2019-02-17T11:47:01.197Z,20.73
2019-02-17T11:49:30.384Z,20.70
2019-02-17T11:51:59.208Z,22.73
2019-02-17T11:54:27.974Z,21.20
2019-02-17T11:56:56.742Z,21.57
2019-02-17T11:59:25.519Z,24.60
2019-02-17T12:01:54.260Z,22.57
2019-02-17T12:04:23.104Z,23.30
2019-02-17T12:06:51.838Z,25.43
2019-02-17T12:09:20.595Z,22.30
2019-02-17T12:11:49.424Z,22.57
2019-02-17T12:14:18.171Z,24.27
2019-02-17T12:16:47.016Z,23.67
2019-02-17T12:19:15.836Z,24.20
2019-02-17T12:22:02.700Z,22.67
2019-02-17T12:24:35.688Z,22.37
2019-02-17T12:27:11.976Z,24.43
2019-02-17T12:29:43.625Z,24.77
2019-02-17T12:32:12.509Z,23.22
2019-02-17T12:34:41.847Z,23.27
2019-02-17T12:37:12.827Z,24.17
2019-02-17T12:39:41.627Z,23.10
2019-02-17T12:42:10.625Z,24.30
2019-02-17T12:44:39.579Z,24.43
2019-02-17T12:47:08.438Z,21.93
2019-02-17T12:49:37.168Z,24.10
2019-02-17T12:52:05.932Z,22.47
2019-02-17T12:54:34.694Z,22.35
2019-02-17T12:57:03.457Z,23.43
2019-02-17T12:59:32.406Z,23.13
2019-02-17T13:02:01.153Z,22.83
2019-02-17T13:04:30.680Z,23.75
2019-02-17T13:06:59.442Z,23.87
2019-02-17T13:09:28.210Z,24.03
2019-02-17T13:11:56.983Z,23.70
2019-02-17T13:14:25.774Z,23.87
2019-02-17T13:16:54.576Z,22.98
2019-02-17T13:19:23.340Z,22.63
2019-02-17T13:21:52.105Z,25.23
2019-02-17T13:24:21.133Z,23.77
2019-02-17T13:26:51.221Z,22.52
2019-02-17T13:29:20.874Z,23.17
2019-02-17T13:31:50.010Z,21.70
2019-02-17T13:34:18.788Z,21.20
2019-02-17T13:36:47.565Z,21.40
2019-02-17T13:39:16.294Z,21.17
2019-02-17T13:41:45.141Z,21.33
2019-02-17T13:44:13.992Z,21.02
2019-02-17T13:46:42.756Z,24.67
2019-02-17T13:49:11.576Z,24.93
2019-02-17T13:51:40.492Z,21.63
2019-02-17T13:54:09.491Z,22.57
2019-02-17T13:56:38.275Z,22.00
2019-02-17T13:59:07.097Z,24.23
2019-02-17T14:01:35.877Z,20.57
2019-02-17T14:04:04.643Z,21.80
2019-02-17T14:06:33.407Z,21.60
2019-02-17T14:09:02.296Z,21.00
2019-02-17T14:11:31.044Z,23.40
2019-02-17T14:13:59.800Z,23.33
2019-02-17T14:16:29.361Z,24.77
2019-02-17T14:18:58.108Z,22.97
2019-02-17T14:21:26.876Z,23.60
2019-02-17T14:23:55.636Z,22.50
2019-02-17T14:26:24.417Z,22.00
2019-02-17T14:28:53.180Z,23.98
2019-02-17T14:31:21.929Z,24.00
2019-02-17T14:33:58.393Z,23.60
2019-02-17T14:36:21.209Z,25.40
2019-02-17T14:38:49.964Z,24.83
2019-02-17T14:41:18.712Z,24.47
2019-02-17T14:43:47.482Z,26.33
2019-02-17T14:46:16.322Z,25.47
2019-02-17T14:48:45.082Z,24.40
2019-02-17T14:51:13.820Z,22.70
2019-02-17T14:53:42.576Z,23.53
2019-02-17T14:56:11.328Z,22.45
2019-02-17T14:58:40.085Z,24.07
2019-02-17T15:01:08.832Z,24.80
2019-02-17T15:03:37.608Z,23.63
2019-02-17T15:06:06.394Z,24.00
2019-02-17T15:08:35.167Z,24.10
2019-02-17T15:11:04.073Z,25.03
2019-02-17T15:13:32.822Z,23.35
2019-02-17T15:16:01.569Z,22.67
2019-02-17T15:18:30.341Z,23.25
2019-02-17T15:20:59.101Z,30.93
2019-02-17T15:23:27.856Z,27.17
2019-02-17T15:25:56.596Z,25.50
2019-02-17T15:28:25.358Z,24.50
2019-02-17T15:30:54.123Z,22.43
2019-02-17T15:33:22.952Z,22.53
2019-02-17T15:35:51.734Z,25.43
2019-02-17T15:38:20.556Z,24.67
2019-02-17T15:40:49.405Z,24.13
2019-02-17T15:43:18.153Z,51.40
2019-02-17T15:45:46.920Z,43.87
2019-02-17T15:48:15.661Z,44.93
2019-02-17T15:50:44.429Z,31.62
2019-02-17T15:53:14.057Z,37.87
2019-02-17T15:55:42.833Z,54.20
2019-02-17T15:58:11.576Z,28.98
2019-02-17T16:00:40.771Z,29.33
2019-02-17T16:03:09.620Z,28.55
2019-02-17T16:05:38.352Z,27.13
2019-02-17T16:08:07.120Z,33.35
2019-02-17T16:10:35.876Z,39.43
2019-02-17T16:13:05.468Z,34.27
2019-02-17T16:15:34.376Z,27.83
2019-02-17T16:18:03.165Z,30.93
2019-02-17T16:20:32.002Z,28.37
2019-02-17T16:23:00.837Z,25.13
2019-02-17T16:25:29.584Z,24.63
2019-02-17T16:27:58.441Z,25.20
2019-02-17T16:30:27.235Z,28.17
2019-02-17T16:32:55.978Z,27.00
2019-02-17T16:35:24.890Z,26.23
2019-02-17T16:37:53.626Z,30.00
2019-02-17T16:40:22.448Z,27.00
2019-02-17T16:42:51.263Z,45.17
2019-02-17T16:45:20.382Z,26.63
2019-02-17T16:47:49.139Z,43.85
2019-02-17T16:50:19.039Z,29.47
2019-02-17T16:52:48.041Z,26.82
2019-02-17T16:55:17.277Z,27.57
2019-02-17T16:57:46.194Z,30.12
2019-02-17T17:00:18.106Z,29.10
2019-02-17T17:02:47.028Z,24.27
2019-02-17T17:05:15.771Z,26.50
2019-02-17T18:41:03.390Z,28.40
2019-02-17T18:43:32.192Z,25.57
2019-02-17T18:46:00.931Z,29.03
2019-02-17T18:48:29.687Z,27.70
2019-02-17T18:50:59.494Z,26.67
2019-02-17T18:58:37.110Z,38.80
2019-02-17T19:01:05.954Z,32.33
2019-02-17T19:03:34.702Z,35.08
2019-02-17T19:06:03.584Z,33.00
2019-02-17T19:08:32.351Z,39.90
2019-02-17T19:11:01.129Z,30.77
2019-02-17T19:13:30.707Z,27.52
2019-02-17T19:15:59.447Z,31.33
2019-02-17T19:18:28.281Z,29.07
2019-02-17T19:20:57.016Z,23.50
2019-02-17T19:23:25.793Z,26.63
2019-02-17T19:25:54.543Z,22.73
2019-02-17T19:28:23.358Z,28.23
2019-02-17T19:30:52.165Z,37.23
2019-02-17T19:33:22.020Z,36.80
2019-02-17T19:35:50.758Z,32.77
2019-02-17T19:38:19.520Z,32.40
2019-02-17T19:40:48.381Z,34.18
2019-02-17T19:43:17.180Z,31.13
2019-02-17T19:45:45.928Z,41.20
2019-02-17T19:48:14.685Z,52.85
2019-02-17T19:50:43.452Z,42.63
2019-02-17T19:53:12.192Z,41.13
2019-02-17T19:55:41.097Z,35.57
2019-02-17T19:58:10.007Z,34.73
2019-02-17T20:00:38.850Z,30.33
2019-02-17T20:03:33.268Z,34.40
2019-02-17T20:06:03.240Z,31.93
2019-02-17T20:08:31.991Z,34.27
2019-02-17T20:11:00.838Z,32.67
2019-02-17T20:13:29.584Z,28.13
2019-02-17T20:15:58.358Z,29.50
2019-02-17T20:18:27.139Z,34.97
2019-02-17T20:20:55.907Z,39.63
2019-02-17T20:23:24.675Z,34.73
2019-02-17T20:25:53.832Z,31.87
2019-02-17T20:28:35.724Z,30.10
2019-02-17T20:30:53.096Z,32.30
2019-02-17T20:33:21.863Z,34.23
2019-02-17T20:35:50.748Z,32.77
2019-02-17T20:38:19.701Z,36.37
2019-02-17T20:40:48.504Z,35.40
2019-02-17T20:43:17.289Z,36.77
2019-02-17T20:45:46.151Z,34.63
2019-02-17T20:48:14.936Z,33.03
2019-02-17T20:50:43.702Z,34.40
2019-02-17T20:53:12.440Z,38.73
2019-02-17T20:55:47.516Z,33.67
2019-02-17T20:58:18.008Z,35.57
2019-02-17T21:00:48.352Z,38.60
2019-02-17T21:03:17.074Z,39.33
2019-02-17T21:05:45.817Z,36.77
2019-02-17T21:08:14.624Z,36.30
2019-02-17T21:10:43.520Z,38.07
2019-02-17T21:13:14.025Z,33.88
2019-02-17T21:15:46.484Z,36.80
2019-02-17T21:18:15.352Z,40.12
2019-02-17T21:20:44.219Z,32.40
2019-02-17T21:23:12.981Z,31.47
2019-02-17T21:25:41.730Z,32.87
2019-02-17T21:28:11.388Z,29.05
2019-02-17T21:30:40.782Z,39.00
2019-02-17T21:33:09.925Z,33.17
2019-02-17T21:35:38.820Z,33.33
2019-02-17T21:38:09.903Z,31.47
2019-02-17T21:40:39.070Z,32.60
2019-02-17T21:43:07.891Z,30.80
2019-02-17T21:45:36.717Z,28.70
2019-02-17T21:48:07.207Z,26.33
2019-02-17T21:50:37.122Z,28.10
2019-02-17T21:53:06.205Z,28.77
2019-02-17T21:55:35.118Z,28.23
2019-02-17T21:58:04.120Z,26.97
2019-02-17T22:00:36.232Z,23.92
2019-02-17T22:03:05.648Z,24.93
2019-02-17T22:05:35.075Z,24.00
2019-02-17T22:08:07.060Z,22.50
2019-02-17T22:10:41.874Z,25.67
2019-02-17T22:13:11.597Z,26.37
2019-02-17T22:15:42.861Z,25.90
2019-02-17T22:18:12.317Z,29.73
2019-02-17T22:20:42.481Z,28.23
2019-02-17T22:23:11.418Z,28.87
2019-02-17T22:25:47.960Z,31.23
2019-02-17T22:28:16.792Z,29.77
2019-02-17T22:30:52.532Z,27.57
2019-02-17T22:33:28.544Z,27.77
2019-02-17T22:36:03.283Z,32.83
2019-02-17T22:38:33.030Z,29.03
2019-02-17T22:41:01.919Z,32.03
2019-02-17T22:43:31.461Z,32.63
2019-02-17T22:46:00.838Z,26.57
2019-02-17T22:48:30.072Z,29.03
2019-02-17T22:50:59.137Z,33.07
2019-02-17T22:53:27.961Z,30.00
2019-02-17T22:55:56.780Z,31.40
2019-02-17T22:58:25.535Z,29.40
2019-02-17T23:01:01.870Z,31.73
2019-02-17T23:03:31.550Z,29.05
2019-02-17T23:06:00.369Z,28.73
2019-02-17T23:08:29.286Z,31.33
2019-02-17T23:10:58.033Z,28.77
2019-02-17T23:13:27.061Z,27.53
2019-02-17T23:15:55.820Z,31.77
2019-02-17T23:18:24.572Z,26.30
2019-02-17T23:20:53.308Z,26.43
2019-02-17T23:23:22.060Z,26.33
2019-02-17T23:25:50.796Z,26.10
2019-02-17T23:28:19.561Z,32.87
2019-02-17T23:30:48.377Z,46.53
2019-02-17T23:33:17.124Z,39.77
2019-02-17T23:35:45.858Z,27.10
2019-02-17T23:38:14.665Z,25.67
2019-02-17T23:40:43.432Z,27.17
2019-02-17T23:43:12.246Z,25.75
2019-02-17T23:45:40.978Z,27.10
2019-02-17T23:48:09.886Z,28.40
2019-02-17T23:50:38.620Z,28.37
2019-02-17T23:53:07.455Z,26.45
2019-02-17T23:55:36.200Z,26.17
2019-02-17T23:58:06.866Z,23.10
